Time;durP1;ratioP1;P1;durP2;ratioP2;P2;SDS_P1;SDS_P2;PMS_P1;PMS_P2;Temp;Humidity;BMP_temperature;BMP_pressure;BME280_temperature;BME280_humidity;BME280_pressure;Samples;Min_cycle;Max_cycle;Signal;HPM_P1;HPM_P2
2023/08/04 00:01:35;;;;;;;0.85;0.50;;;21.30;67.10;;;;;;5000322;28;20026;-49
2023/08/04 00:04:01;;;;;;;0.57;0.30;;;21.30;67.10;;;;;;5002069;28;20370;-49
2023/08/04 00:06:26;;;;;;;0.32;0.20;;;21.30;67.20;;;;;;5001019;28;20040;-49
2023/08/04 00:08:52;;;;;;;0.85;0.30;;;21.30;67.30;;;;;;4981197;28;20027;-49
2023/08/04 00:11:17;;;;;;;2.70;0.47;;;21.30;67.00;;;;;;4988376;28;20530;-49
2023/08/04 00:13:43;;;;;;;1.13;0.50;;;21.30;67.10;;;;;;4999340;28;20022;-49
2023/08/04 00:16:09;;;;;;;0.50;0.40;;;21.30;67.00;;;;;;5001774;28;20286;-51
2023/08/04 00:18:35;;;;;;;0.40;0.30;;;21.30;67.00;;;;;;5001543;28;20483;-55
2023/08/04 00:21:03;;;;;;;0.93;0.47;;;21.20;67.00;;;;;;5001161;28;20026;-51
2023/08/04 00:23:29;;;;;;;0.40;0.30;;;21.30;67.20;;;;;;4992160;28;20269;-50
2023/08/04 00:25:54;;;;;;;0.40;0.30;;;21.30;67.20;;;;;;4999496;28;20049;-51
2023/08/04 00:28:22;;;;;;;0.65;0.40;;;21.30;67.00;;;;;;4998183;28;20121;-49
2023/08/04 00:30:47;;;;;;;0.63;0.40;;;21.30;67.00;;;;;;5000028;28;20585;-49
2023/08/04 00:33:13;;;;;;;1.65;0.40;;;21.30;67.10;;;;;;5001330;28;20064;-51
2023/08/04 00:35:39;;;;;;;0.43;0.30;;;21.30;67.20;;;;;;4999116;28;20044;-50
2023/08/04 00:38:04;;;;;;;0.77;0.43;;;21.30;67.20;;;;;;4996342;28;20044;-49
2023/08/04 00:40:30;;;;;;;1.13;0.60;;;21.30;67.20;;;;;;4980281;28;20039;-51
2023/08/04 00:42:55;;;;;;;1.08;0.40;;;21.30;67.20;;;;;;4992065;28;20543;-49
2023/08/04 00:45:23;;;;;;;0.52;0.40;;;21.30;67.20;;;;;;4997649;28;20041;-49
2023/08/04 00:47:49;;;;;;;1.20;0.30;;;21.30;67.00;;;;;;5002896;28;20045;-49
2023/08/04 00:50:14;;;;;;;0.65;0.50;;;21.30;67.00;;;;;;4989757;28;20108;-50
2023/08/04 00:52:41;;;;;;;0.73;0.30;;;21.30;67.00;;;;;;4982513;28;20035;-50
2023/08/04 00:55:08;;;;;;;0.63;0.30;;;21.30;67.10;;;;;;4984093;28;20030;-50
2023/08/04 00:57:37;;;;;;;0.63;0.22;;;21.30;67.00;;;;;;4996843;28;20026;-49
2023/08/04 01:00:04;;;;;;;0.73;0.40;;;21.30;67.20;;;;;;4991072;28;20034;-53
2023/08/04 01:02:30;;;;;;;0.43;0.43;;;21.30;67.30;;;;;;4994863;23;20057;-54
2023/08/04 01:04:55;;;;;;;0.55;0.30;;;21.20;67.00;;;;;;4986912;28;20042;-55
2023/08/04 01:07:27;;;;;;;0.70;0.30;;;21.30;67.10;;;;;;5001781;28;20042;-53
2023/08/04 01:10:31;;;;;;;1.13;0.32;;;21.20;67.10;;;;;;4999509;28;20031;-55
2023/08/04 01:13:00;;;;;;;0.70;0.40;;;21.30;67.00;;;;;;4993781;28;20053;-48
2023/08/04 01:15:27;;;;;;;1.17;0.40;;;21.20;67.10;;;;;;5001404;28;20438;-51
2023/08/04 01:17:54;;;;;;;0.35;0.32;;;21.30;67.20;;;;;;4999816;28;20057;-53
2023/08/04 01:20:20;;;;;;;1.15;0.32;;;21.30;67.20;;;;;;4997921;28;20033;-50
2023/08/04 01:22:46;;;;;;;0.52;0.30;;;21.30;67.10;;;;;;4996276;28;20749;-48
2023/08/04 01:25:11;;;;;;;0.68;0.30;;;21.30;67.10;;;;;;4995868;28;20231;-53
2023/08/04 01:27:48;;;;;;;0.85;0.30;;;21.30;67.00;;;;;;4996681;28;20046;-56
2023/08/04 01:30:20;;;;;;;1.10;0.45;;;21.30;67.10;;;;;;4993516;28;20042;-56
2023/08/04 01:32:46;;;;;;;0.47;0.43;;;21.30;67.00;;;;;;4999409;28;20410;-52
2023/08/04 01:35:13;;;;;;;0.90;0.40;;;21.30;66.80;;;;;;5002491;28;20037;-49
2023/08/04 01:37:38;;;;;;;0.68;0.38;;;21.20;67.20;;;;;;4999882;28;20034;-47
2023/08/04 01:40:04;;;;;;;0.93;0.50;;;21.20;67.20;;;;;;5004610;28;20431;-49
2023/08/04 01:42:30;;;;;;;0.57;0.38;;;21.20;67.30;;;;;;4998931;28;20731;-48
2023/08/04 01:44:56;;;;;;;0.57;0.25;;;21.20;67.20;;;;;;5002051;28;20038;-54
2023/08/04 01:47:21;;;;;;;1.75;0.38;;;21.20;67.30;;;;;;4998838;28;20030;-53
2023/08/04 01:49:47;;;;;;;0.40;0.40;;;21.20;67.20;;;;;;4995752;28;20025;-51
2023/08/04 01:52:13;;;;;;;1.02;0.30;;;21.20;67.30;;;;;;4995305;28;20399;-51
2023/08/04 01:54:38;;;;;;;2.83;0.40;;;21.20;67.20;;;;;;4996063;28;20026;-53
2023/08/04 01:57:04;;;;;;;1.30;0.28;;;21.30;67.20;;;;;;4995584;28;20517;-54
2023/08/04 01:59:30;;;;;;;0.88;0.50;;;21.20;67.20;;;;;;4992847;28;20699;-51
2023/08/04 02:01:55;;;;;;;1.13;0.32;;;21.20;67.40;;;;;;4998440;28;20067;-55
2023/08/04 02:04:21;;;;;;;0.68;0.30;;;21.30;67.30;;;;;;5000076;28;20033;-51
2023/08/04 02:06:46;;;;;;;0.65;0.63;;;21.30;67.30;;;;;;5000084;28;20512;-50
2023/08/04 02:09:13;;;;;;;0.43;0.43;;;21.20;67.30;;;;;;5002978;28;20053;-54
2023/08/04 02:11:39;;;;;;;1.00;0.60;;;21.20;67.60;;;;;;4997109;28;20491;-51
2023/08/04 02:14:05;;;;;;;1.10;0.40;;;21.20;67.30;;;;;;5001735;28;20042;-52
2023/08/04 02:16:30;;;;;;;1.58;0.40;;;21.30;67.40;;;;;;4997841;28;20039;-50
2023/08/04 02:19:08;;;;;;;0.63;0.40;;;21.20;67.30;;;;;;4999188;28;20173;-58
2023/08/04 02:21:34;;;;;;;0.88;0.40;;;21.20;67.40;;;;;;4994688;28;20678;-50
2023/08/04 02:23:59;;;;;;;0.90;0.43;;;21.20;67.30;;;;;;4999228;28;20125;-54
2023/08/04 02:26:26;;;;;;;0.50;0.43;;;21.30;67.40;;;;;;4994274;28;20032;-50
2023/08/04 02:28:52;;;;;;;0.30;0.30;;;21.20;67.30;;;;;;4995028;28;20050;-51
2023/08/04 02:31:18;;;;;;;1.20;0.50;;;21.30;67.40;;;;;;5001088;28;20045;-51
2023/08/04 02:33:44;;;;;;;0.30;0.30;;;21.20;67.40;;;;;;5000406;28;20087;-50
2023/08/04 02:36:11;;;;;;;0.93;0.40;;;21.20;67.30;;;;;;5000156;28;20454;-50
2023/08/04 02:38:37;;;;;;;0.40;0.40;;;21.20;67.30;;;;;;5001683;28;20084;-55
2023/08/04 02:41:03;;;;;;;0.65;0.40;;;21.20;67.30;;;;;;4998366;28;20026;-48
2023/08/04 02:43:29;;;;;;;0.30;0.30;;;21.20;67.30;;;;;;4997338;28;20061;-57
2023/08/04 02:45:54;;;;;;;0.60;0.40;;;21.20;67.40;;;;;;4999521;28;20045;-51
2023/08/04 02:48:20;;;;;;;1.40;0.60;;;21.20;67.40;;;;;;4995761;28;20029;-48
2023/08/04 02:50:46;;;;;;;0.30;0.30;;;21.20;67.30;;;;;;4992426;28;20037;-54
2023/08/04 02:53:12;;;;;;;0.57;0.40;;;21.20;67.40;;;;;;4997795;28;20034;-52
2023/08/04 02:55:38;;;;;;;1.00;0.38;;;21.20;67.30;;;;;;4993192;28;20418;-49
2023/08/04 02:58:04;;;;;;;0.73;0.30;;;21.20;67.30;;;;;;5017438;28;20045;-55
2023/08/04 03:00:30;;;;;;;1.25;0.30;;;21.20;67.30;;;;;;5013031;28;20040;-55
2023/08/04 03:02:56;;;;;;;0.95;0.55;;;21.20;67.30;;;;;;4996704;28;20426;-54
2023/08/04 03:05:21;;;;;;;0.43;0.30;;;21.20;67.90;;;;;;5000085;28;20029;-48
2023/08/04 03:07:47;;;;;;;2.17;0.30;;;21.20;67.40;;;;;;4997540;28;20037;-50
2023/08/04 03:10:12;;;;;;;0.57;0.35;;;21.20;67.40;;;;;;4997725;28;20268;-54
2023/08/04 03:12:39;;;;;;;1.85;0.50;;;21.20;67.30;;;;;;4997662;28;20079;-47
2023/08/04 03:15:05;;;;;;;0.30;0.20;;;21.20;67.50;;;;;;4999121;28;20494;-50
2023/08/04 03:17:30;;;;;;;1.10;0.30;;;21.30;67.40;;;;;;4997967;28;20032;-51
2023/08/04 03:19:56;;;;;;;0.50;0.50;;;21.20;67.50;;;;;;4995451;28;20041;-57
2023/08/04 03:22:21;;;;;;;0.43;0.40;;;21.20;67.60;;;;;;4997602;28;20053;-50
2023/08/04 03:24:47;;;;;;;1.08;0.40;;;21.20;67.70;;;;;;4997490;28;20034;-51
2023/08/04 03:27:13;;;;;;;1.38;0.30;;;21.20;67.40;;;;;;4997803;28;20065;-53
2023/08/04 03:29:38;;;;;;;0.47;0.30;;;21.20;67.50;;;;;;4998257;28;20029;-51
2023/08/04 03:32:04;;;;;;;0.52;0.30;;;21.20;67.50;;;;;;4999058;28;20045;-50
2023/08/04 03:34:29;;;;;;;0.82;0.32;;;21.20;67.50;;;;;;5000353;28;20037;-51
2023/08/04 03:36:55;;;;;;;0.75;0.38;;;21.20;67.30;;;;;;4997334;28;20045;-53
2023/08/04 03:39:21;;;;;;;0.73;0.40;;;21.20;67.40;;;;;;4998667;28;20503;-55
2023/08/04 03:41:46;;;;;;;0.50;0.40;;;21.20;67.50;;;;;;4999139;28;20030;-50
2023/08/04 03:44:12;;;;;;;0.80;0.30;;;21.20;67.50;;;;;;4996785;28;20133;-48
2023/08/04 03:46:37;;;;;;;0.63;0.40;;;21.20;67.50;;;;;;4996643;28;20081;-52
2023/08/04 03:49:03;;;;;;;2.05;0.60;;;21.20;67.50;;;;;;4991990;28;20036;-53
2023/08/04 03:51:28;;;;;;;0.40;0.30;;;21.20;67.50;;;;;;4993734;28;20177;-58
2023/08/04 03:53:54;;;;;;;0.75;0.45;;;21.20;67.50;;;;;;4995216;28;20022;-50
2023/08/04 03:56:19;;;;;;;1.35;0.40;;;21.20;67.50;;;;;;4998707;28;20036;-57
2023/08/04 03:58:45;;;;;;;1.17;0.60;;;21.20;67.60;;;;;;4997235;28;20030;-49
2023/08/04 04:01:10;;;;;;;0.73;0.28;;;21.20;67.70;;;;;;4996876;28;20034;-55
2023/08/04 04:03:36;;;;;;;0.85;0.30;;;21.20;67.60;;;;;;4999965;28;20050;-50
2023/08/04 04:06:01;;;;;;;1.58;0.32;;;21.20;67.60;;;;;;4997469;28;20045;-56
2023/08/04 04:08:27;;;;;;;0.30;0.30;;;21.20;67.60;;;;;;4995856;28;20033;-48
2023/08/04 04:10:55;;;;;;;0.52;0.25;;;21.20;67.80;;;;;;4997183;28;20026;-49
2023/08/04 04:13:21;;;;;;;0.30;0.30;;;21.20;67.80;;;;;;4995193;28;20049;-50
2023/08/04 04:15:46;;;;;;;2.05;0.70;;;21.20;67.80;;;;;;4993745;28;20030;-48
2023/08/04 04:18:12;;;;;;;1.05;0.50;;;21.20;67.80;;;;;;4996558;28;20034;-53
2023/08/04 04:20:37;;;;;;;0.77;0.40;;;21.20;67.70;;;;;;4994813;28;20026;-51
2023/08/04 04:23:03;;;;;;;0.90;0.43;;;21.20;67.60;;;;;;4995629;28;20041;-49
2023/08/04 04:25:28;;;;;;;1.40;0.40;;;21.20;67.70;;;;;;4998795;28;20155;-52
2023/08/04 04:27:54;;;;;;;0.30;0.30;;;21.20;67.70;;;;;;4997190;28;20478;-56
2023/08/04 04:30:19;;;;;;;0.52;0.30;;;21.20;67.70;;;;;;5003535;28;20066;-53
2023/08/04 04:32:45;;;;;;;1.58;0.43;;;21.20;67.70;;;;;;4995324;28;20030;-49
2023/08/04 04:35:10;;;;;;;0.63;0.40;;;21.20;67.80;;;;;;5012002;28;20034;-56
2023/08/04 04:37:36;;;;;;;0.82;0.40;;;21.20;67.70;;;;;;4986082;28;20039;-47
2023/08/04 04:40:02;;;;;;;0.65;0.40;;;21.20;67.70;;;;;;4995041;28;20050;-50
2023/08/04 04:42:27;;;;;;;0.30;0.30;;;21.20;67.60;;;;;;4997275;28;20038;-50
2023/08/04 04:44:55;;;;;;;0.55;0.40;;;21.20;67.60;;;;;;4994312;28;20460;-54
2023/08/04 04:47:20;;;;;;;0.65;0.32;;;21.20;67.60;;;;;;4998075;28;20181;-49
2023/08/04 04:49:46;;;;;;;0.85;0.40;;;21.20;67.70;;;;;;4995147;28;20744;-47
2023/08/04 04:52:28;;;;;;;1.45;0.40;;;21.20;67.60;;;;;;4995929;28;20034;-51
2023/08/04 04:54:53;;;;;;;0.45;0.30;;;21.20;67.70;;;;;;4994471;28;20135;-54
2023/08/04 04:57:19;;;;;;;0.85;0.32;;;21.20;67.60;;;;;;4997026;28;20092;-47
2023/08/04 04:59:44;;;;;;;0.70;0.40;;;21.20;67.50;;;;;;4997325;28;20075;-47
2023/08/04 05:02:10;;;;;;;0.90;0.45;;;21.20;67.60;;;;;;5001874;28;20038;-48
2023/08/04 05:04:35;;;;;;;0.60;0.50;;;21.20;67.80;;;;;;4996000;28;20104;-56
2023/08/04 05:07:01;;;;;;;0.50;0.40;;;21.20;67.60;;;;;;4998351;28;20529;-55
2023/08/04 05:09:26;;;;;;;0.68;0.40;;;21.20;67.60;;;;;;4995938;28;20054;-48
2023/08/04 05:11:52;;;;;;;0.55;0.50;;;21.20;67.50;;;;;;4997716;28;20514;-51
2023/08/04 05:14:17;;;;;;;0.65;0.60;;;21.20;67.60;;;;;;4997115;28;20030;-47
2023/08/04 05:16:45;;;;;;;0.68;0.40;;;21.20;67.30;;;;;;4995193;28;20030;-47
2023/08/04 05:19:10;;;;;;;0.65;0.45;;;21.20;67.60;;;;;;5012312;28;20022;-50
2023/08/04 05:21:36;;;;;;;0.85;0.43;;;21.20;67.60;;;;;;4997941;28;20030;-54
2023/08/04 05:24:01;;;;;;;2.85;0.47;;;21.20;67.90;;;;;;4993470;28;20033;-54
2023/08/04 05:26:27;;;;;;;1.55;0.55;;;21.20;68.00;;;;;;4997001;28;20372;-47
2023/08/04 05:28:52;;;;;;;0.90;0.50;;;21.20;67.90;;;;;;4996137;28;20033;-50
2023/08/04 05:31:18;;;;;;;1.10;0.65;;;21.20;67.80;;;;;;4998170;28;20045;-54
2023/08/04 05:33:43;;;;;;;1.20;0.50;;;21.20;67.90;;;;;;5000000;28;20121;-50
2023/08/04 05:36:09;;;;;;;0.75;0.43;;;21.20;67.80;;;;;;4997789;28;20080;-51
2023/08/04 05:38:35;;;;;;;0.98;0.50;;;21.20;67.70;;;;;;4997785;28;20030;-50
2023/08/04 05:41:01;;;;;;;0.82;0.60;;;21.20;67.70;;;;;;5001059;28;20104;-55
2023/08/04 05:43:27;;;;;;;1.67;0.40;;;21.20;67.70;;;;;;5000587;28;20116;-49
2023/08/04 05:45:53;;;;;;;2.20;0.55;;;21.20;67.60;;;;;;5001572;28;20535;-51
2023/08/04 05:48:19;;;;;;;2.22;0.70;;;21.20;67.70;;;;;;5001080;28;20038;-50
2023/08/04 05:50:45;;;;;;;2.28;0.90;;;21.20;67.80;;;;;;4996606;28;20054;-51
2023/08/04 05:53:10;;;;;;;1.63;0.63;;;21.20;68.00;;;;;;4999787;28;20045;-47
2023/08/04 05:55:36;;;;;;;2.45;0.50;;;21.20;68.20;;;;;;4999556;28;20327;-50
2023/08/04 05:58:02;;;;;;;3.83;1.08;;;21.20;68.40;;;;;;4996080;28;20029;-57
2023/08/04 06:00:29;;;;;;;0.90;0.70;;;21.20;68.10;;;;;;5002287;28;20056;-55
2023/08/04 06:02:55;;;;;;;2.33;0.90;;;21.20;68.20;;;;;;5002274;28;20102;-55
2023/08/04 06:05:20;;;;;;;2.85;0.93;;;21.20;68.10;;;;;;4997878;28;20490;-50
2023/08/04 06:07:47;;;;;;;4.70;1.27;;;21.20;68.00;;;;;;4998042;28;20511;-51
2023/08/04 06:10:16;;;;;;;5.65;3.75;;;21.20;68.10;;;;;;5000711;28;20046;-56
2023/08/04 06:12:41;;;;;;;5.38;3.65;;;21.20;67.80;;;;;;4997788;28;20045;-59
2023/08/04 06:15:08;;;;;;;6.75;3.20;;;21.10;68.20;;;;;;4997842;28;20038;-51
2023/08/04 06:17:33;;;;;;;4.78;3.10;;;21.10;68.10;;;;;;4997587;28;20423;-56
2023/08/04 06:19:59;;;;;;;2.53;2.17;;;21.10;68.00;;;;;;4998870;28;20030;-48
2023/08/04 06:22:24;;;;;;;3.90;2.00;;;21.10;68.60;;;;;;4999382;28;20497;-50
2023/08/04 06:24:50;;;;;;;1.50;1.38;;;21.00;67.80;;;;;;4997087;28;20046;-57
2023/08/04 06:27:15;;;;;;;3.40;1.30;;;21.00;68.60;;;;;;4999414;28;20515;-49
2023/08/04 06:29:41;;;;;;;3.10;1.40;;;21.00;68.10;;;;;;4996136;28;20049;-50
2023/08/04 06:32:07;;;;;;;2.10;1.27;;;21.00;68.10;;;;;;4994026;28;20037;-54
2023/08/04 06:34:33;;;;;;;2.15;1.00;;;21.00;67.90;;;;;;4994405;28;20062;-49
2023/08/04 06:36:58;;;;;;;0.90;0.75;;;21.00;67.80;;;;;;4999244;28;20521;-56
2023/08/04 06:39:24;;;;;;;0.90;0.70;;;21.00;68.00;;;;;;4998424;28;20044;-52
2023/08/04 06:41:49;;;;;;;2.38;0.80;;;20.90;68.00;;;;;;4999122;28;20038;-49
2023/08/04 06:44:15;;;;;;;1.73;0.90;;;21.00;67.90;;;;;;4999775;28;20400;-51
2023/08/04 06:46:41;;;;;;;2.35;1.02;;;21.00;68.20;;;;;;4999839;28;20463;-54
2023/08/04 06:49:06;;;;;;;1.92;1.10;;;21.00;68.10;;;;;;4998801;28;20403;-56
2023/08/04 06:51:32;;;;;;;3.15;1.10;;;21.00;68.00;;;;;;4997312;28;20910;-49
2023/08/04 06:53:57;;;;;;;2.35;1.00;;;20.90;68.00;;;;;;4997955;28;20733;-49
2023/08/04 06:56:23;;;;;;;1.70;1.00;;;20.90;68.10;;;;;;5002026;28;20044;-52
2023/08/04 06:58:48;;;;;;;9.88;4.47;;;20.90;68.00;;;;;;5001292;28;20038;-55
2023/08/04 07:01:14;;;;;;;7.68;2.38;;;20.90;68.40;;;;;;4997065;28;20053;-58
2023/08/04 07:03:40;;;;;;;7.30;1.70;;;20.90;69.10;;;;;;4996947;28;20040;-49
2023/08/04 07:06:06;;;;;;;2.67;1.15;;;20.90;69.60;;;;;;5000842;28;20468;-53
2023/08/04 07:08:31;;;;;;;6.20;1.50;;;20.80;69.50;;;;;;4997810;28;20041;-58
2023/08/04 07:10:57;;;;;;;2.15;1.58;;;20.80;69.20;;;;;;4999550;28;20037;-55
2023/08/04 07:13:22;;;;;;;3.80;1.63;;;20.80;69.60;;;;;;5000116;28;20042;-51
2023/08/04 07:15:55;;;;;;;4.15;1.50;;;20.80;69.50;;;;;;4995765;28;20049;-52
2023/08/04 07:18:21;;;;;;;2.28;1.35;;;20.80;69.30;;;;;;4995593;28;20042;-56
2023/08/04 07:20:47;;;;;;;2.17;1.35;;;20.70;69.20;;;;;;4998884;28;20037;-57
2023/08/04 07:23:12;;;;;;;6.55;2.33;;;20.80;69.20;;;;;;5000471;28;20037;-49
2023/08/04 07:25:38;;;;;;;5.13;2.67;;;20.70;70.20;;;;;;4997254;28;20030;-54
2023/08/04 07:28:03;;;;;;;5.78;2.60;;;20.80;70.20;;;;;;4997341;28;20506;-55
2023/08/04 07:30:30;;;;;;;8.25;2.78;;;20.80;69.80;;;;;;4996819;28;20036;-49
2023/08/04 07:32:55;;;;;;;2.95;1.60;;;20.90;70.00;;;;;;4993396;28;20650;-49
2023/08/04 07:35:21;;;;;;;2.85;1.50;;;20.80;69.80;;;;;;4996652;28;20030;-49
2023/08/04 07:37:46;;;;;;;2.55;1.20;;;20.90;69.70;;;;;;5013402;28;20590;-53
2023/08/04 07:40:13;;;;;;;2.97;1.25;;;20.90;69.50;;;;;;4998562;28;20038;-53
2023/08/04 07:42:38;;;;;;;4.43;1.30;;;20.90;69.70;;;;;;4992550;28;20040;-51
2023/08/04 07:45:04;;;;;;;2.03;1.25;;;20.90;70.10;;;;;;5003035;28;20046;-59
2023/08/04 07:47:30;;;;;;;3.65;1.30;;;20.90;70.10;;;;;;4997961;28;20053;-54
2023/08/04 07:49:55;;;;;;;1.83;1.40;;;20.90;70.30;;;;;;4995069;28;20042;-51
2023/08/04 07:52:21;;;;;;;2.50;1.20;;;20.90;70.10;;;;;;4995388;28;20045;-50
2023/08/04 07:54:46;;;;;;;2.33;1.00;;;20.90;70.10;;;;;;4997308;28;20022;-52
2023/08/04 07:57:12;;;;;;;2.35;1.20;;;20.90;70.00;;;;;;4996930;28;20034;-50
2023/08/04 07:59:37;;;;;;;1.67;1.20;;;20.90;69.80;;;;;;4999107;28;20088;-55
2023/08/04 08:02:03;;;;;;;1.90;0.95;;;20.90;69.90;;;;;;4991534;28;20038;-52
2023/08/04 08:04:29;;;;;;;1.45;1.13;;;20.90;69.40;;;;;;4991707;28;20121;-56
2023/08/04 08:06:54;;;;;;;2.88;1.38;;;20.90;69.50;;;;;;4997135;28;20038;-58
2023/08/04 08:09:20;;;;;;;1.52;0.80;;;20.90;69.80;;;;;;4997813;28;20030;-48
2023/08/04 08:11:45;;;;;;;1.90;1.02;;;20.90;69.80;;;;;;4997304;28;20050;-54
2023/08/04 08:14:11;;;;;;;3.70;1.45;;;20.90;69.80;;;;;;4996818;28;20030;-56
2023/08/04 08:16:36;;;;;;;1.30;1.15;;;20.90;69.80;;;;;;4994607;28;20030;-52
2023/08/04 08:19:03;;;;;;;1.88;1.10;;;20.90;69.60;;;;;;4995413;28;20471;-52
2023/08/04 08:21:30;;;;;;;2.20;1.10;;;20.90;69.90;;;;;;4995796;28;20109;-55
2023/08/04 08:23:56;;;;;;;1.67;1.25;;;20.90;70.40;;;;;;4994481;28;20089;-51
2023/08/04 08:26:21;;;;;;;2.28;1.23;;;20.90;70.70;;;;;;4997282;28;20507;-53
2023/08/04 08:28:47;;;;;;;1.45;1.08;;;20.90;70.30;;;;;;4992281;28;20707;-56
2023/08/04 08:31:12;;;;;;;2.33;1.20;;;20.90;70.70;;;;;;4990841;28;20069;-56
2023/08/04 08:33:38;;;;;;;2.60;0.95;;;20.90;70.80;;;;;;4992830;28;20059;-56
2023/08/04 08:36:05;;;;;;;1.40;1.00;;;20.90;71.00;;;;;;4997695;28;20071;-53
2023/08/04 08:38:31;;;;;;;1.20;1.10;;;20.90;70.80;;;;;;4996568;28;20552;-52
2023/08/04 08:40:56;;;;;;;2.05;1.30;;;20.90;71.20;;;;;;4998943;28;20034;-53
2023/08/04 08:43:22;;;;;;;2.00;1.10;;;20.90;71.10;;;;;;4997558;28;20034;-55
2023/08/04 08:45:50;;;;;;;1.50;0.98;;;20.90;70.40;;;;;;4994067;28;20041;-55
2023/08/04 08:48:16;;;;;;;1.98;1.20;;;20.90;71.00;;;;;;4996911;28;20543;-51
2023/08/04 08:50:43;;;;;;;1.48;0.98;;;20.90;71.50;;;;;;4995972;28;20041;-51
2023/08/04 08:53:12;;;;;;;1.42;1.30;;;20.90;71.50;;;;;;4986391;28;20037;-50
2023/08/04 08:55:39;;;;;;;1.20;1.00;;;20.90;71.30;;;;;;4997233;28;20029;-52
2023/08/04 08:58:05;;;;;;;1.48;1.02;;;21.00;70.80;;;;;;4994485;28;20093;-51
2023/08/04 09:00:33;;;;;;;1.08;0.98;;;20.90;71.60;;;;;;4994378;28;20137;-52
2023/08/04 09:02:58;;;;;;;1.40;1.00;;;20.90;71.90;;;;;;4994862;28;20129;-50
2023/08/04 09:05:24;;;;;;;1.25;1.00;;;20.90;71.60;;;;;;4998927;28;20133;-49
2023/08/04 09:07:49;;;;;;;1.25;1.00;;;20.90;72.00;;;;;;5001245;28;20029;-52
2023/08/04 09:10:15;;;;;;;1.00;0.88;;;20.90;71.70;;;;;;5000505;28;20128;-54
2023/08/04 09:12:44;;;;;;;1.90;1.15;;;20.90;71.50;;;;;;5012868;28;20068;-50
2023/08/04 09:15:10;;;;;;;0.98;0.90;;;20.90;71.60;;;;;;4995807;28;20049;-51
2023/08/04 09:17:37;;;;;;;1.55;1.00;;;20.90;71.90;;;;;;4998605;28;20030;-51
2023/08/04 09:20:05;;;;;;;1.75;0.70;;;20.90;71.50;;;;;;4999347;28;20065;-51
2023/08/04 09:22:35;;;;;;;1.67;1.00;;;20.90;72.70;;;;;;4997635;28;20030;-51
2023/08/04 09:25:02;;;;;;;1.23;0.70;;;20.90;72.20;;;;;;4995288;28;20557;-50
2023/08/04 09:27:37;;;;;;;2.38;0.90;;;20.90;71.90;;;;;;4998746;28;20041;-52
2023/08/04 09:30:05;;;;;;;3.00;1.52;;;20.90;72.80;;;;;;4995191;28;20030;-51
2023/08/04 09:32:41;;;;;;;1.30;1.00;;;20.90;72.80;;;;;;4995309;28;20438;-50
2023/08/04 09:35:07;;;;;;;;;;;20.90;72.90;;;;;;5010290;28;20050;-55
2023/08/04 09:37:33;;;;;;;1.45;1.10;;;21.00;72.30;;;;;;5001441;28;20002;-51
2023/08/04 09:40:01;;;;;;;1.10;0.80;;;21.00;71.90;;;;;;5000696;28;20573;-53
2023/08/04 09:42:26;;;;;;;2.45;1.00;;;21.00;72.00;;;;;;4998283;28;20034;-51
2023/08/04 09:44:53;;;;;;;0.90;0.70;;;21.00;71.30;;;;;;5014432;28;20034;-54
2023/08/04 09:47:27;;;;;;;2.35;1.00;;;21.00;71.60;;;;;;4999976;28;20368;-53
2023/08/04 09:49:54;;;;;;;1.35;1.00;;;21.00;72.10;;;;;;4998432;28;20540;-50
2023/08/04 09:52:25;;;;;;;3.42;1.58;;;21.00;72.20;;;;;;4997370;28;20030;-53
2023/08/04 09:54:55;;;;;;;1.10;0.93;;;21.00;73.00;;;;;;4998816;28;20030;-53
2023/08/04 09:57:22;;;;;;;3.10;1.23;;;21.00;72.40;;;;;;4996000;28;20035;-53
2023/08/04 09:59:48;;;;;;;1.58;0.93;;;21.00;72.60;;;;;;4995225;28;20037;-54
2023/08/04 10:02:15;;;;;;;4.18;1.00;;;21.00;73.00;;;;;;4997114;28;20034;-52
2023/08/04 10:04:41;;;;;;;1.52;1.27;;;21.00;72.70;;;;;;5000814;28;20038;-49
2023/08/04 10:07:10;;;;;;;2.97;1.27;;;21.00;71.90;;;;;;5000420;28;20030;-53
2023/08/04 10:09:36;;;;;;;1.20;1.10;;;21.00;72.40;;;;;;5000444;28;20030;-50
2023/08/04 10:12:02;;;;;;;2.20;1.20;;;21.00;72.50;;;;;;4999097;28;20037;-50
2023/08/04 10:14:28;;;;;;;1.40;1.10;;;21.00;72.60;;;;;;5001240;28;20691;-53
2023/08/04 10:16:54;;;;;;;2.47;1.00;;;21.00;73.10;;;;;;4998221;28;20045;-52
2023/08/04 10:19:23;;;;;;;1.10;1.00;;;21.00;72.50;;;;;;5004485;28;20030;-53
2023/08/04 10:21:49;;;;;;;1.45;1.00;;;21.00;72.00;;;;;;4997337;28;20049;-53
2023/08/04 10:24:17;;;;;;;0.90;0.90;;;21.00;73.00;;;;;;4997105;28;20034;-60
2023/08/04 10:26:50;;;;;;;1.25;1.15;;;21.00;72.30;;;;;;4998461;28;20033;-51
2023/08/04 10:29:16;;;;;;;1.85;1.02;;;21.00;73.40;;;;;;4982585;28;20050;-53
2023/08/04 10:31:45;;;;;;;1.23;0.90;;;21.00;72.50;;;;;;4999596;28;20034;-52
2023/08/04 10:34:19;;;;;;;1.13;1.00;;;21.00;73.50;;;;;;4976443;28;20117;-51
2023/08/04 10:37:15;;;;;;;0.90;0.70;;;21.00;73.40;;;;;;4978254;28;20030;-52
2023/08/04 10:39:40;;;;;;;;;;;20.90;72.30;;;;;;4986791;28;20511;-49
2023/08/04 10:42:12;;;;;;;0.70;0.70;;;20.90;73.00;;;;;;4995200;28;19917;-52
2023/08/04 10:45:03;;;;;;;1.48;1.10;;;21.00;73.40;;;;;;4997707;28;20044;-50
2023/08/04 10:47:45;;;;;;;0.90;0.80;;;21.00;72.60;;;;;;4996689;28;20646;-52
2023/08/04 10:50:12;;;;;;;1.50;1.00;;;21.00;72.90;;;;;;4997111;28;20396;-51
2023/08/04 10:52:38;;;;;;;1.77;0.70;;;21.00;73.30;;;;;;5000698;28;20038;-51
2023/08/04 10:55:06;;;;;;;1.63;0.65;;;20.90;73.00;;;;;;4995358;28;20038;-53
2023/08/04 10:57:33;;;;;;;0.70;0.60;;;21.00;73.20;;;;;;4994705;28;20038;-50
2023/08/04 11:00:09;;;;;;;1.02;0.93;;;20.90;72.60;;;;;;4993802;28;20034;-53
2023/08/04 11:02:36;;;;;;;2.13;0.70;;;20.90;72.70;;;;;;4996637;28;20048;-54
2023/08/04 11:05:05;;;;;;;0.75;0.70;;;21.00;72.60;;;;;;5000956;28;20064;-51
2023/08/04 11:07:31;;;;;;;2.05;0.90;;;21.00;72.40;;;;;;4998830;28;20041;-49
2023/08/04 11:10:06;;;;;;;1.88;0.80;;;20.90;72.80;;;;;;4997033;28;20057;-54
2023/08/04 11:12:32;;;;;;;1.00;0.90;;;20.80;73.00;;;;;;4994565;28;20508;-53
2023/08/04 11:14:59;;;;;;;2.28;0.93;;;20.70;73.00;;;;;;4993875;28;20525;-52
2023/08/04 11:17:25;;;;;;;1.30;0.80;;;20.80;72.70;;;;;;4998228;28;20045;-50
2023/08/04 11:19:50;;;;;;;1.08;0.95;;;20.80;73.20;;;;;;4996707;28;20514;-51
2023/08/04 11:22:20;;;;;;;2.45;0.85;;;20.90;72.90;;;;;;4995482;28;20435;-52
2023/08/04 11:24:46;;;;;;;1.67;0.90;;;20.90;73.30;;;;;;4993848;28;20570;-54
2023/08/04 11:27:13;;;;;;;2.65;1.20;;;20.90;72.60;;;;;;4995676;28;20038;-50
2023/08/04 11:29:39;;;;;;;3.05;0.98;;;21.00;73.40;;;;;;4993292;28;20030;-49
2023/08/04 11:32:16;;;;;;;2.35;1.10;;;20.90;73.10;;;;;;4998984;28;20041;-49
2023/08/04 11:34:42;;;;;;;1.35;1.20;;;20.90;73.90;;;;;;4998059;28;20037;-52
2023/08/04 11:37:08;;;;;;;1.65;1.10;;;20.90;73.30;;;;;;4998587;28;20041;-52
2023/08/04 11:39:35;;;;;;;1.92;1.58;;;20.90;73.00;;;;;;4993018;28;20037;-52
2023/08/04 11:42:02;;;;;;;2.03;1.40;;;20.90;72.80;;;;;;4993283;28;20030;-50
2023/08/04 11:44:28;;;;;;;2.65;1.30;;;21.00;72.70;;;;;;4984388;28;20029;-50
2023/08/04 11:46:53;;;;;;;2.20;1.40;;;20.90;73.00;;;;;;4997191;28;20026;-50
2023/08/04 11:49:19;;;;;;;1.65;1.45;;;20.90;72.90;;;;;;4996508;28;20049;-51
2023/08/04 11:51:45;;;;;;;1.70;1.27;;;20.90;73.00;;;;;;5008243;28;20026;-53
2023/08/04 11:54:24;;;;;;;1.70;1.50;;;20.90;73.10;;;;;;4982295;28;20474;-53
2023/08/04 11:56:57;;;;;;;1.90;1.20;;;20.90;72.80;;;;;;4996040;28;20248;-49
2023/08/04 11:59:23;;;;;;;2.08;1.23;;;21.00;73.00;;;;;;4994037;28;20298;-50
2023/08/04 12:01:49;;;;;;;3.25;1.52;;;21.00;72.40;;;;;;4997621;28;20073;-49
2023/08/04 12:04:22;;;;;;;1.63;1.33;;;21.00;72.00;;;;;;4998015;28;20087;-52
2023/08/04 12:07:01;;;;;;;1.35;1.10;;;21.10;72.10;;;;;;4979143;28;20096;-50
2023/08/04 12:09:27;;;;;;;1.92;1.23;;;21.10;71.70;;;;;;4995540;28;20034;-50
2023/08/04 12:11:53;;;;;;;1.50;1.40;;;21.10;73.00;;;;;;4998681;28;20100;-50
2023/08/04 12:14:20;;;;;;;1.85;1.50;;;21.10;72.40;;;;;;4999127;28;20522;-52
2023/08/04 12:16:52;;;;;;;1.48;1.05;;;21.00;72.10;;;;;;4999378;28;20030;-53
2023/08/04 12:19:19;;;;;;;2.08;1.40;;;21.00;73.40;;;;;;4995220;28;20036;-51
2023/08/04 12:21:45;;;;;;;2.20;1.42;;;20.90;72.30;;;;;;4995738;28;20045;-50
2023/08/04 12:24:11;;;;;;;1.60;1.20;;;21.00;72.80;;;;;;4996251;28;20387;-54
2023/08/04 12:26:37;;;;;;;1.88;1.52;;;21.00;72.80;;;;;;4991350;28;20085;-51
2023/08/04 12:29:02;;;;;;;1.98;1.40;;;21.00;72.50;;;;;;4998768;28;20034;-50
2023/08/04 12:31:28;;;;;;;2.90;1.27;;;21.10;73.50;;;;;;5000113;28;20038;-53
2023/08/04 12:33:53;;;;;;;5.80;1.27;;;21.00;73.70;;;;;;5002273;28;20026;-51
2023/08/04 12:36:19;;;;;;;1.90;1.40;;;21.00;73.70;;;;;;5000669;28;20026;-49
2023/08/04 12:38:46;;;;;;;1.77;1.33;;;21.00;73.60;;;;;;5002489;28;20109;-50
2023/08/04 12:41:11;;;;;;;1.42;1.17;;;21.00;73.80;;;;;;5000047;28;20455;-53
2023/08/04 12:43:37;;;;;;;2.50;1.10;;;21.00;73.40;;;;;;5000343;28;20037;-50
2023/08/04 12:46:02;;;;;;;1.13;1.02;;;21.10;72.60;;;;;;4998765;28;20252;-50